sensor_id;sensor_type;location;lat;lon;timestamp;temperature;humidity
63299;DHT22;54535;52.138;5.398;2022-09-24T00:03:42;15.30;99.90
63299;DHT22;54535;52.138;5.398;2022-09-24T00:06:11;15.30;99.90
63299;DHT22;54535;52.138;5.398;2022-09-24T00:08:40;15.30;99.90
63299;DHT22;54535;52.138;5.398;2022-09-24T00:11:07;15.30;99.90
63299;DHT22;54535;52.138;5.398;2022-09-24T00:13:37;15.30;99.90
63299;DHT22;54535;52.138;5.398;2022-09-24T00:16:05;15.30;99.90
63299;DHT22;54535;52.138;5.398;2022-09-24T00:18:32;15.30;99.90
63299;DHT22;54535;52.138;5.398;2022-09-24T00:20:59;15.20;99.90
63299;DHT22;54535;52.138;5.398;2022-09-24T00:23:26;15.20;99.90
63299;DHT22;54535;52.138;5.398;2022-09-24T00:25:52;15.20;99.90
63299;DHT22;54535;52.138;5.398;2022-09-24T00:28:38;15.30;99.90
63299;DHT22;54535;52.138;5.398;2022-09-24T00:31:06;15.30;99.90
63299;DHT22;54535;52.138;5.398;2022-09-24T00:33:33;15.20;99.90
63299;DHT22;54535;52.138;5.398;2022-09-24T00:36:01;15.20;99.90
63299;DHT22;54535;52.138;5.398;2022-09-24T00:38:32;15.10;99.90
63299;DHT22;54535;52.138;5.398;2022-09-24T00:40:59;15.10;99.90
63299;DHT22;54535;52.138;5.398;2022-09-24T00:43:27;15.00;99.90
63299;DHT22;54535;52.138;5.398;2022-09-24T00:48:30;15.00;99.90
63299;DHT22;54535;52.138;5.398;2022-09-24T00:51:02;15.00;99.90
63299;DHT22;54535;52.138;5.398;2022-09-24T00:53:29;15.00;99.90
63299;DHT22;54535;52.138;5.398;2022-09-24T00:55:59;15.00;99.90
63299;DHT22;54535;52.138;5.398;2022-09-24T00:58:27;14.90;99.90
63299;DHT22;54535;52.138;5.398;2022-09-24T01:00:59;14.90;99.90
63299;DHT22;54535;52.138;5.398;2022-09-24T01:03:26;14.90;99.90
63299;DHT22;54535;52.138;5.398;2022-09-24T01:05:54;14.90;99.90
63299;DHT22;54535;52.138;5.398;2022-09-24T01:08:21;14.90;99.90
63299;DHT22;54535;52.138;5.398;2022-09-24T01:16:04;14.80;99.90
63299;DHT22;54535;52.138;5.398;2022-09-24T01:18:34;14.90;99.90
63299;DHT22;54535;52.138;5.398;2022-09-24T01:31:00;14.70;99.90
63299;DHT22;54535;52.138;5.398;2022-09-24T01:33:29;14.70;99.90
63299;DHT22;54535;52.138;5.398;2022-09-24T01:35:58;14.70;99.90
63299;DHT22;54535;52.138;5.398;2022-09-24T01:38:27;14.70;99.90
63299;DHT22;54535;52.138;5.398;2022-09-24T01:40:55;14.70;99.90
63299;DHT22;54535;52.138;5.398;2022-09-24T01:43:24;14.70;99.90
63299;DHT22;54535;52.138;5.398;2022-09-24T01:45:56;14.70;99.90
63299;DHT22;54535;52.138;5.398;2022-09-24T01:48:25;14.80;99.90
63299;DHT22;54535;52.138;5.398;2022-09-24T01:50:58;14.80;99.90
63299;DHT22;54535;52.138;5.398;2022-09-24T01:53:26;14.80;99.90
63299;DHT22;54535;52.138;5.398;2022-09-24T01:55:57;14.80;99.90
63299;DHT22;54535;52.138;5.398;2022-09-24T01:58:35;14.70;99.90
63299;DHT22;54535;52.138;5.398;2022-09-24T02:01:06;14.70;99.90
63299;DHT22;54535;52.138;5.398;2022-09-24T02:03:36;14.70;99.90
63299;DHT22;54535;52.138;5.398;2022-09-24T02:08:41;14.70;99.90
63299;DHT22;54535;52.138;5.398;2022-09-24T02:11:10;14.70;99.90
63299;DHT22;54535;52.138;5.398;2022-09-24T02:13:42;14.80;99.90
63299;DHT22;54535;52.138;5.398;2022-09-24T02:16:12;14.70;99.90
63299;DHT22;54535;52.138;5.398;2022-09-24T02:18:43;14.70;99.90
63299;DHT22;54535;52.138;5.398;2022-09-24T02:21:15;14.70;99.90
63299;DHT22;54535;52.138;5.398;2022-09-24T02:24:02;14.70;99.90
63299;DHT22;54535;52.138;5.398;2022-09-24T02:26:30;14.60;99.90
63299;DHT22;54535;52.138;5.398;2022-09-24T02:28:56;14.60;99.90
63299;DHT22;54535;52.138;5.398;2022-09-24T02:31:28;14.60;99.90
63299;DHT22;54535;52.138;5.398;2022-09-24T02:33:56;14.50;99.90
63299;DHT22;54535;52.138;5.398;2022-09-24T02:36:42;14.60;99.90
63299;DHT22;54535;52.138;5.398;2022-09-24T02:39:09;14.50;99.90
63299;DHT22;54535;52.138;5.398;2022-09-24T02:41:35;14.50;99.90
63299;DHT22;54535;52.138;5.398;2022-09-24T02:44:02;14.50;99.90
63299;DHT22;54535;52.138;5.398;2022-09-24T02:46:28;14.50;99.90
63299;DHT22;54535;52.138;5.398;2022-09-24T02:48:55;14.50;99.90
63299;DHT22;54535;52.138;5.398;2022-09-24T02:51:23;14.50;99.90
63299;DHT22;54535;52.138;5.398;2022-09-24T02:53:49;14.50;99.90
63299;DHT22;54535;52.138;5.398;2022-09-24T02:56:16;14.60;99.90
63299;DHT22;54535;52.138;5.398;2022-09-24T02:58:42;14.50;99.90
63299;DHT22;54535;52.138;5.398;2022-09-24T03:01:09;14.50;99.90
63299;DHT22;54535;52.138;5.398;2022-09-24T03:03:36;14.50;99.90
63299;DHT22;54535;52.138;5.398;2022-09-24T03:06:02;14.40;99.90
63299;DHT22;54535;52.138;5.398;2022-09-24T03:08:30;14.40;99.90
63299;DHT22;54535;52.138;5.398;2022-09-24T03:10:57;14.30;99.90
63299;DHT22;54535;52.138;5.398;2022-09-24T03:13:24;14.20;99.90
63299;DHT22;54535;52.138;5.398;2022-09-24T03:15:51;14.30;99.90
63299;DHT22;54535;52.138;5.398;2022-09-24T03:18:17;14.30;99.90
63299;DHT22;54535;52.138;5.398;2022-09-24T03:20:52;14.30;99.90
63299;DHT22;54535;52.138;5.398;2022-09-24T03:23:19;14.20;99.90
63299;DHT22;54535;52.138;5.398;2022-09-24T03:25:46;14.30;99.90
63299;DHT22;54535;52.138;5.398;2022-09-24T03:28:12;14.30;99.90
63299;DHT22;54535;52.138;5.398;2022-09-24T03:30:39;14.30;99.90
63299;DHT22;54535;52.138;5.398;2022-09-24T03:36:02;14.30;99.90
63299;DHT22;54535;52.138;5.398;2022-09-24T03:38:29;14.30;99.90
63299;DHT22;54535;52.138;5.398;2022-09-24T03:40:56;14.40;99.90
63299;DHT22;54535;52.138;5.398;2022-09-24T03:43:23;14.40;99.90
63299;DHT22;54535;52.138;5.398;2022-09-24T03:45:50;14.40;99.90
63299;DHT22;54535;52.138;5.398;2022-09-24T03:48:18;14.50;99.90
63299;DHT22;54535;52.138;5.398;2022-09-24T03:50:45;14.50;99.90
63299;DHT22;54535;52.138;5.398;2022-09-24T03:53:12;14.40;99.90
63299;DHT22;54535;52.138;5.398;2022-09-24T03:55:43;14.40;99.90
63299;DHT22;54535;52.138;5.398;2022-09-24T03:58:10;14.40;99.90
63299;DHT22;54535;52.138;5.398;2022-09-24T04:00:36;14.40;99.90
63299;DHT22;54535;52.138;5.398;2022-09-24T04:03:07;14.40;99.90
63299;DHT22;54535;52.138;5.398;2022-09-24T04:05:34;14.50;99.90
63299;DHT22;54535;52.138;5.398;2022-09-24T04:08:01;14.50;99.90
63299;DHT22;54535;52.138;5.398;2022-09-24T04:10:28;14.50;99.90
63299;DHT22;54535;52.138;5.398;2022-09-24T04:12:55;14.50;99.90
63299;DHT22;54535;52.138;5.398;2022-09-24T04:15:21;14.50;99.90
63299;DHT22;54535;52.138;5.398;2022-09-24T04:17:56;14.50;99.90
63299;DHT22;54535;52.138;5.398;2022-09-24T04:20:24;14.50;99.90
63299;DHT22;54535;52.138;5.398;2022-09-24T04:22:51;14.60;99.90
63299;DHT22;54535;52.138;5.398;2022-09-24T04:25:19;14.70;99.90
63299;DHT22;54535;52.138;5.398;2022-09-24T04:27:46;14.70;99.90
63299;DHT22;54535;52.138;5.398;2022-09-24T04:30:13;14.70;99.90
63299;DHT22;54535;52.138;5.398;2022-09-24T04:32:40;14.70;99.90
63299;DHT22;54535;52.138;5.398;2022-09-24T04:35:07;14.70;99.90
63299;DHT22;54535;52.138;5.398;2022-09-24T04:37:34;14.80;99.90
63299;DHT22;54535;52.138;5.398;2022-09-24T04:40:02;14.80;99.90
63299;DHT22;54535;52.138;5.398;2022-09-24T04:42:28;14.80;99.90
63299;DHT22;54535;52.138;5.398;2022-09-24T04:44:55;14.80;99.90
63299;DHT22;54535;52.138;5.398;2022-09-24T04:47:21;14.70;99.90
63299;DHT22;54535;52.138;5.398;2022-09-24T04:49:51;14.80;99.90
63299;DHT22;54535;52.138;5.398;2022-09-24T04:52:17;14.80;99.90
63299;DHT22;54535;52.138;5.398;2022-09-24T04:54:44;14.80;99.90
63299;DHT22;54535;52.138;5.398;2022-09-24T04:57:13;14.80;99.90
63299;DHT22;54535;52.138;5.398;2022-09-24T04:59:40;14.80;99.90
63299;DHT22;54535;52.138;5.398;2022-09-24T05:02:07;14.80;99.90
63299;DHT22;54535;52.138;5.398;2022-09-24T05:04:35;14.80;99.90
63299;DHT22;54535;52.138;5.398;2022-09-24T05:07:02;14.90;99.90
63299;DHT22;54535;52.138;5.398;2022-09-24T05:09:29;14.90;99.90
63299;DHT22;54535;52.138;5.398;2022-09-24T05:11:57;15.00;99.90
63299;DHT22;54535;52.138;5.398;2022-09-24T05:14:24;15.00;99.90
63299;DHT22;54535;52.138;5.398;2022-09-24T05:16:50;15.00;99.90
63299;DHT22;54535;52.138;5.398;2022-09-24T05:19:17;15.00;99.90
63299;DHT22;54535;52.138;5.398;2022-09-24T05:21:44;15.00;99.90
63299;DHT22;54535;52.138;5.398;2022-09-24T05:24:11;15.00;99.90
63299;DHT22;54535;52.138;5.398;2022-09-24T05:26:38;15.00;99.90
63299;DHT22;54535;52.138;5.398;2022-09-24T05:29:23;15.00;99.90
63299;DHT22;54535;52.138;5.398;2022-09-24T05:31:50;15.00;99.90
63299;DHT22;54535;52.138;5.398;2022-09-24T05:34:17;15.00;99.90
63299;DHT22;54535;52.138;5.398;2022-09-24T05:36:43;15.00;99.90
63299;DHT22;54535;52.138;5.398;2022-09-24T05:39:10;15.00;99.90
63299;DHT22;54535;52.138;5.398;2022-09-24T05:41:38;15.00;99.90
63299;DHT22;54535;52.138;5.398;2022-09-24T05:44:05;15.10;99.90
63299;DHT22;54535;52.138;5.398;2022-09-24T05:46:32;15.10;99.90
63299;DHT22;54535;52.138;5.398;2022-09-24T05:48:58;15.10;99.90
63299;DHT22;54535;52.138;5.398;2022-09-24T05:51:25;15.10;99.90
63299;DHT22;54535;52.138;5.398;2022-09-24T05:53:52;15.20;99.90
63299;DHT22;54535;52.138;5.398;2022-09-24T05:56:18;15.20;99.90
63299;DHT22;54535;52.138;5.398;2022-09-24T05:58:48;15.20;99.90
63299;DHT22;54535;52.138;5.398;2022-09-24T06:01:15;15.20;99.90
63299;DHT22;54535;52.138;5.398;2022-09-24T06:03:42;15.20;99.90
63299;DHT22;54535;52.138;5.398;2022-09-24T06:06:09;15.20;99.90
63299;DHT22;54535;52.138;5.398;2022-09-24T06:08:35;15.20;99.90
63299;DHT22;54535;52.138;5.398;2022-09-24T06:11:03;15.20;99.90
63299;DHT22;54535;52.138;5.398;2022-09-24T06:13:31;15.20;99.90
63299;DHT22;54535;52.138;5.398;2022-09-24T06:16:08;15.20;99.90
63299;DHT22;54535;52.138;5.398;2022-09-24T06:18:35;15.20;99.90
63299;DHT22;54535;52.138;5.398;2022-09-24T06:21:08;15.10;99.90
63299;DHT22;54535;52.138;5.398;2022-09-24T06:23:36;15.10;99.90
63299;DHT22;54535;52.138;5.398;2022-09-24T06:26:03;15.10;99.90
63299;DHT22;54535;52.138;5.398;2022-09-24T06:28:30;15.20;99.90
63299;DHT22;54535;52.138;5.398;2022-09-24T06:30:58;15.20;99.90
63299;DHT22;54535;52.138;5.398;2022-09-24T06:33:25;15.30;99.90
63299;DHT22;54535;52.138;5.398;2022-09-24T06:35:52;15.30;99.90
63299;DHT22;54535;52.138;5.398;2022-09-24T06:38:19;15.30;99.90
63299;DHT22;54535;52.138;5.398;2022-09-24T06:40:46;15.20;99.90
63299;DHT22;54535;52.138;5.398;2022-09-24T06:43:14;15.30;99.90
63299;DHT22;54535;52.138;5.398;2022-09-24T06:45:40;15.30;99.90
63299;DHT22;54535;52.138;5.398;2022-09-24T06:48:11;15.30;99.90
63299;DHT22;54535;52.138;5.398;2022-09-24T06:50:39;15.30;99.90
63299;DHT22;54535;52.138;5.398;2022-09-24T06:53:07;15.30;99.90
63299;DHT22;54535;52.138;5.398;2022-09-24T06:55:34;15.40;99.90
63299;DHT22;54535;52.138;5.398;2022-09-24T06:58:04;15.40;99.90
63299;DHT22;54535;52.138;5.398;2022-09-24T07:00:32;15.40;99.90
63299;DHT22;54535;52.138;5.398;2022-09-24T07:02:59;15.40;99.90
63299;DHT22;54535;52.138;5.398;2022-09-24T07:05:26;15.40;99.90
63299;DHT22;54535;52.138;5.398;2022-09-24T07:07:53;15.50;99.90
63299;DHT22;54535;52.138;5.398;2022-09-24T07:10:19;15.50;99.90
63299;DHT22;54535;52.138;5.398;2022-09-24T07:12:46;15.50;99.90
63299;DHT22;54535;52.138;5.398;2022-09-24T07:15:13;15.50;99.90
63299;DHT22;54535;52.138;5.398;2022-09-24T07:17:40;15.50;99.90
63299;DHT22;54535;52.138;5.398;2022-09-24T07:20:07;15.50;99.90
63299;DHT22;54535;52.138;5.398;2022-09-24T07:22:37;15.50;99.90
63299;DHT22;54535;52.138;5.398;2022-09-24T07:25:06;15.40;99.90
63299;DHT22;54535;52.138;5.398;2022-09-24T07:27:33;15.50;99.90
63299;DHT22;54535;52.138;5.398;2022-09-24T07:30:00;15.50;99.90
63299;DHT22;54535;52.138;5.398;2022-09-24T07:32:27;15.50;99.90
63299;DHT22;54535;52.138;5.398;2022-09-24T07:34:55;15.50;99.90
63299;DHT22;54535;52.138;5.398;2022-09-24T07:37:22;15.60;99.90
63299;DHT22;54535;52.138;5.398;2022-09-24T07:39:49;15.60;99.90
63299;DHT22;54535;52.138;5.398;2022-09-24T07:42:15;15.60;99.90
63299;DHT22;54535;52.138;5.398;2022-09-24T07:44:42;15.60;99.90
63299;DHT22;54535;52.138;5.398;2022-09-24T07:47:09;15.70;99.90
63299;DHT22;54535;52.138;5.398;2022-09-24T07:49:41;15.70;99.90
63299;DHT22;54535;52.138;5.398;2022-09-24T07:52:08;15.60;99.90
63299;DHT22;54535;52.138;5.398;2022-09-24T07:54:36;15.60;99.90
63299;DHT22;54535;52.138;5.398;2022-09-24T07:57:06;15.60;99.90
63299;DHT22;54535;52.138;5.398;2022-09-24T07:59:34;15.60;99.90
63299;DHT22;54535;52.138;5.398;2022-09-24T08:02:01;15.70;99.90
63299;DHT22;54535;52.138;5.398;2022-09-24T08:04:28;15.80;99.90
63299;DHT22;54535;52.138;5.398;2022-09-24T08:06:56;15.80;99.90
63299;DHT22;54535;52.138;5.398;2022-09-24T08:09:23;15.80;99.90
63299;DHT22;54535;52.138;5.398;2022-09-24T08:11:50;15.80;99.90
63299;DHT22;54535;52.138;5.398;2022-09-24T08:14:17;15.80;99.90
63299;DHT22;54535;52.138;5.398;2022-09-24T08:16:43;15.80;99.90
63299;DHT22;54535;52.138;5.398;2022-09-24T08:19:10;15.80;99.90
63299;DHT22;54535;52.138;5.398;2022-09-24T08:21:39;15.90;99.90
63299;DHT22;54535;52.138;5.398;2022-09-24T08:24:06;15.90;99.90
63299;DHT22;54535;52.138;5.398;2022-09-24T08:26:33;15.90;99.90
63299;DHT22;54535;52.138;5.398;2022-09-24T08:28:59;15.90;99.90
63299;DHT22;54535;52.138;5.398;2022-09-24T08:31:26;15.90;99.90
63299;DHT22;54535;52.138;5.398;2022-09-24T08:33:53;16.00;99.90
63299;DHT22;54535;52.138;5.398;2022-09-24T08:36:20;15.90;99.90
63299;DHT22;54535;52.138;5.398;2022-09-24T08:38:47;15.90;99.90
63299;DHT22;54535;52.138;5.398;2022-09-24T08:41:20;15.90;99.90
63299;DHT22;54535;52.138;5.398;2022-09-24T08:46:23;15.90;99.90
63299;DHT22;54535;52.138;5.398;2022-09-24T08:49:12;15.90;99.90
63299;DHT22;54535;52.138;5.398;2022-09-24T08:51:50;15.90;99.90
63299;DHT22;54535;52.138;5.398;2022-09-24T08:54:19;16.00;99.90
63299;DHT22;54535;52.138;5.398;2022-09-24T08:56:46;16.00;99.90
63299;DHT22;54535;52.138;5.398;2022-09-24T09:09:37;16.00;99.90
63299;DHT22;54535;52.138;5.398;2022-09-24T09:12:00;16.00;99.90
63299;DHT22;54535;52.138;5.398;2022-09-24T09:17:06;16.00;99.90
63299;DHT22;54535;52.138;5.398;2022-09-24T09:19:38;16.00;99.90
63299;DHT22;54535;52.138;5.398;2022-09-24T09:22:08;16.00;99.90
63299;DHT22;54535;52.138;5.398;2022-09-24T09:27:04;16.00;99.90
63299;DHT22;54535;52.138;5.398;2022-09-24T09:29:36;16.00;99.90
63299;DHT22;54535;52.138;5.398;2022-09-24T09:34:43;16.10;99.90
63299;DHT22;54535;52.138;5.398;2022-09-24T09:39:44;16.10;99.90
63299;DHT22;54535;52.138;5.398;2022-09-24T09:44:42;16.10;99.90
63299;DHT22;54535;52.138;5.398;2022-09-24T09:49:48;16.10;99.90
63299;DHT22;54535;52.138;5.398;2022-09-24T09:52:20;16.10;99.90
63299;DHT22;54535;52.138;5.398;2022-09-24T09:54:49;16.20;99.90
63299;DHT22;54535;52.138;5.398;2022-09-24T09:57:20;16.20;99.90
63299;DHT22;54535;52.138;5.398;2022-09-24T09:59:48;16.10;99.90
63299;DHT22;54535;52.138;5.398;2022-09-24T10:02:32;16.10;99.90
63299;DHT22;54535;52.138;5.398;2022-09-24T10:05:01;16.20;99.90
63299;DHT22;54535;52.138;5.398;2022-09-24T10:07:28;16.20;99.90
63299;DHT22;54535;52.138;5.398;2022-09-24T10:10:01;16.20;99.90
63299;DHT22;54535;52.138;5.398;2022-09-24T10:12:28;16.20;99.90
63299;DHT22;54535;52.138;5.398;2022-09-24T10:14:56;16.20;99.90
63299;DHT22;54535;52.138;5.398;2022-09-24T10:17:24;16.20;99.90
63299;DHT22;54535;52.138;5.398;2022-09-24T10:19:52;16.20;99.90
63299;DHT22;54535;52.138;5.398;2022-09-24T10:22:23;16.20;99.90
63299;DHT22;54535;52.138;5.398;2022-09-24T10:24:51;16.20;99.90
63299;DHT22;54535;52.138;5.398;2022-09-24T10:27:21;16.20;99.90
63299;DHT22;54535;52.138;5.398;2022-09-24T10:29:53;16.20;99.90
63299;DHT22;54535;52.138;5.398;2022-09-24T10:32:39;16.20;99.90
63299;DHT22;54535;52.138;5.398;2022-09-24T10:37:56;16.20;99.90
63299;DHT22;54535;52.138;5.398;2022-09-24T10:40:25;16.20;99.90
63299;DHT22;54535;52.138;5.398;2022-09-24T10:42:54;16.30;99.90
63299;DHT22;54535;52.138;5.398;2022-09-24T10:45:22;16.30;99.90
63299;DHT22;54535;52.138;5.398;2022-09-24T10:50:29;16.30;99.90
63299;DHT22;54535;52.138;5.398;2022-09-24T10:52:59;16.30;99.90
63299;DHT22;54535;52.138;5.398;2022-09-24T10:55:32;16.30;99.90
63299;DHT22;54535;52.138;5.398;2022-09-24T10:58:06;16.40;99.90
63299;DHT22;54535;52.138;5.398;2022-09-24T11:03:22;16.40;99.90
63299;DHT22;54535;52.138;5.398;2022-09-24T11:06:01;16.40;99.90
63299;DHT22;54535;52.138;5.398;2022-09-24T11:08:50;16.40;99.90
63299;DHT22;54535;52.138;5.398;2022-09-24T11:11:26;16.40;99.90
63299;DHT22;54535;52.138;5.398;2022-09-24T11:27:16;16.50;99.90
63299;DHT22;54535;52.138;5.398;2022-09-24T11:32:30;16.60;99.90
63299;DHT22;54535;52.138;5.398;2022-09-24T11:37:42;16.60;99.90
63299;DHT22;54535;52.138;5.398;2022-09-24T11:42:48;16.60;99.90
63299;DHT22;54535;52.138;5.398;2022-09-24T11:50:42;16.50;99.90
63299;DHT22;54535;52.138;5.398;2022-09-24T11:53:57;16.40;99.90
63299;DHT22;54535;52.138;5.398;2022-09-24T11:56:17;16.40;99.90
63299;DHT22;54535;52.138;5.398;2022-09-24T11:58:48;16.40;99.90
63299;DHT22;54535;52.138;5.398;2022-09-24T12:01:19;16.40;99.90
63299;DHT22;54535;52.138;5.398;2022-09-24T12:06:21;16.30;99.90
63299;DHT22;54535;52.138;5.398;2022-09-24T12:11:52;16.30;99.90
63299;DHT22;54535;52.138;5.398;2022-09-24T12:16:44;16.30;99.90
63299;DHT22;54535;52.138;5.398;2022-09-24T12:19:18;16.30;99.90
63299;DHT22;54535;52.138;5.398;2022-09-24T12:21:47;16.30;99.90
63299;DHT22;54535;52.138;5.398;2022-09-24T12:26:50;16.30;99.90
63299;DHT22;54535;52.138;5.398;2022-09-24T12:32:11;16.40;99.90
63299;DHT22;54535;52.138;5.398;2022-09-24T12:35:01;16.40;99.90
63299;DHT22;54535;52.138;5.398;2022-09-24T12:37:36;16.40;99.90
63299;DHT22;54535;52.138;5.398;2022-09-24T12:42:37;16.50;99.90
63299;DHT22;54535;52.138;5.398;2022-09-24T12:45:06;16.50;99.90
63299;DHT22;54535;52.138;5.398;2022-09-24T12:47:43;16.50;99.90
63299;DHT22;54535;52.138;5.398;2022-09-24T12:50:18;16.60;99.90
63299;DHT22;54535;52.138;5.398;2022-09-24T12:52:45;16.60;99.90
63299;DHT22;54535;52.138;5.398;2022-09-24T12:55:20;16.50;99.90
63299;DHT22;54535;52.138;5.398;2022-09-24T12:57:53;16.50;99.90
63299;DHT22;54535;52.138;5.398;2022-09-24T13:00:35;16.40;99.90
63299;DHT22;54535;52.138;5.398;2022-09-24T13:03:02;16.40;99.90
63299;DHT22;54535;52.138;5.398;2022-09-24T13:05:33;16.30;99.90
63299;DHT22;54535;52.138;5.398;2022-09-24T13:08:01;16.20;99.90
63299;DHT22;54535;52.138;5.398;2022-09-24T13:10:30;16.20;99.90
63299;DHT22;54535;52.138;5.398;2022-09-24T13:12:58;16.20;99.90
63299;DHT22;54535;52.138;5.398;2022-09-24T13:15:34;16.20;99.90
63299;DHT22;54535;52.138;5.398;2022-09-24T13:20:40;16.20;99.90
63299;DHT22;54535;52.138;5.398;2022-09-24T13:28:25;16.20;99.90
63299;DHT22;54535;52.138;5.398;2022-09-24T13:33:53;16.30;99.90
63299;DHT22;54535;52.138;5.398;2022-09-24T13:38:52;16.40;99.90
63299;DHT22;54535;52.138;5.398;2022-09-24T13:41:24;16.50;99.90
63299;DHT22;54535;52.138;5.398;2022-09-24T13:44:00;16.50;99.90
63299;DHT22;54535;52.138;5.398;2022-09-24T13:46:27;16.50;99.90
63299;DHT22;54535;52.138;5.398;2022-09-24T13:48:56;16.50;99.90
63299;DHT22;54535;52.138;5.398;2022-09-24T13:51:27;16.50;99.90
63299;DHT22;54535;52.138;5.398;2022-09-24T13:53:56;16.50;99.90
63299;DHT22;54535;52.138;5.398;2022-09-24T13:56:25;16.50;99.90
63299;DHT22;54535;52.138;5.398;2022-09-24T13:58:51;16.50;99.90
63299;DHT22;54535;52.138;5.398;2022-09-24T14:01:28;16.50;99.90
63299;DHT22;54535;52.138;5.398;2022-09-24T14:04:03;16.60;99.90
63299;DHT22;54535;52.138;5.398;2022-09-24T14:06:36;16.60;99.90
63299;DHT22;54535;52.138;5.398;2022-09-24T14:11:47;16.60;99.90
63299;DHT22;54535;52.138;5.398;2022-09-24T14:14:15;16.70;99.90
63299;DHT22;54535;52.138;5.398;2022-09-24T14:16:43;16.60;99.90
63299;DHT22;54535;52.138;5.398;2022-09-24T14:19:13;16.70;99.90
63299;DHT22;54535;52.138;5.398;2022-09-24T14:21:45;16.70;99.90
63299;DHT22;54535;52.138;5.398;2022-09-24T14:24:24;16.70;99.90
63299;DHT22;54535;52.138;5.398;2022-09-24T14:26:53;16.70;99.90
63299;DHT22;54535;52.138;5.398;2022-09-24T14:29:23;16.70;99.90
63299;DHT22;54535;52.138;5.398;2022-09-24T14:31:56;16.80;99.90
63299;DHT22;54535;52.138;5.398;2022-09-24T14:36:54;16.80;99.90
63299;DHT22;54535;52.138;5.398;2022-09-24T14:39:26;16.70;99.90
63299;DHT22;54535;52.138;5.398;2022-09-24T14:41:53;16.80;99.90
63299;DHT22;54535;52.138;5.398;2022-09-24T14:44:22;16.80;99.90
63299;DHT22;54535;52.138;5.398;2022-09-24T14:46:54;16.80;99.90
63299;DHT22;54535;52.138;5.398;2022-09-24T14:49:23;16.80;99.90
63299;DHT22;54535;52.138;5.398;2022-09-24T14:51:52;16.90;99.90
63299;DHT22;54535;52.138;5.398;2022-09-24T14:56:49;16.90;99.90
63299;DHT22;54535;52.138;5.398;2022-09-24T14:59:27;16.90;99.90
63299;DHT22;54535;52.138;5.398;2022-09-24T15:02:02;16.90;99.90
63299;DHT22;54535;52.138;5.398;2022-09-24T15:04:29;16.80;99.90
63299;DHT22;54535;52.138;5.398;2022-09-24T15:06:56;16.90;99.90
63299;DHT22;54535;52.138;5.398;2022-09-24T15:09:29;16.90;99.90
63299;DHT22;54535;52.138;5.398;2022-09-24T15:12:12;16.90;99.90
63299;DHT22;54535;52.138;5.398;2022-09-24T15:14:52;16.80;99.90
63299;DHT22;54535;52.138;5.398;2022-09-24T15:17:22;16.80;99.90
63299;DHT22;54535;52.138;5.398;2022-09-24T15:19:52;16.80;99.90
63299;DHT22;54535;52.138;5.398;2022-09-24T15:22:21;16.80;99.90
63299;DHT22;54535;52.138;5.398;2022-09-24T15:24:48;16.70;99.90
63299;DHT22;54535;52.138;5.398;2022-09-24T15:27:20;16.70;99.90
63299;DHT22;54535;52.138;5.398;2022-09-24T15:29:47;16.70;99.90
63299;DHT22;54535;52.138;5.398;2022-09-24T15:32:18;16.70;99.90
63299;DHT22;54535;52.138;5.398;2022-09-24T15:34:45;16.70;99.90
63299;DHT22;54535;52.138;5.398;2022-09-24T15:37:17;16.70;99.90
63299;DHT22;54535;52.138;5.398;2022-09-24T15:39:45;16.70;99.90
63299;DHT22;54535;52.138;5.398;2022-09-24T15:42:16;16.70;99.90
63299;DHT22;54535;52.138;5.398;2022-09-24T15:44:43;16.60;99.90
63299;DHT22;54535;52.138;5.398;2022-09-24T15:47:11;16.60;99.90
63299;DHT22;54535;52.138;5.398;2022-09-24T15:49:38;16.70;99.90
63299;DHT22;54535;52.138;5.398;2022-09-24T15:52:11;16.60;99.90
63299;DHT22;54535;52.138;5.398;2022-09-24T15:54:39;16.60;99.90
63299;DHT22;54535;52.138;5.398;2022-09-24T15:57:05;16.60;99.90
63299;DHT22;54535;52.138;5.398;2022-09-24T15:59:32;16.60;99.90
63299;DHT22;54535;52.138;5.398;2022-09-24T16:02:02;16.60;99.90
63299;DHT22;54535;52.138;5.398;2022-09-24T16:04:30;16.60;99.90
63299;DHT22;54535;52.138;5.398;2022-09-24T16:06:56;16.60;99.90
63299;DHT22;54535;52.138;5.398;2022-09-24T16:09:24;16.60;99.90
63299;DHT22;54535;52.138;5.398;2022-09-24T16:11:51;16.60;99.90
63299;DHT22;54535;52.138;5.398;2022-09-24T16:14:18;16.60;99.90
63299;DHT22;54535;52.138;5.398;2022-09-24T16:16:44;16.60;99.90
63299;DHT22;54535;52.138;5.398;2022-09-24T16:19:11;16.60;99.90
63299;DHT22;54535;52.138;5.398;2022-09-24T16:21:38;16.60;99.90
63299;DHT22;54535;52.138;5.398;2022-09-24T16:24:05;16.60;99.90
63299;DHT22;54535;52.138;5.398;2022-09-24T16:26:32;16.60;99.90
63299;DHT22;54535;52.138;5.398;2022-09-24T16:29:03;16.50;99.90
63299;DHT22;54535;52.138;5.398;2022-09-24T16:31:30;16.50;99.90
63299;DHT22;54535;52.138;5.398;2022-09-24T16:33:58;16.50;99.90
63299;DHT22;54535;52.138;5.398;2022-09-24T16:36:24;16.50;99.90
63299;DHT22;54535;52.138;5.398;2022-09-24T16:38:51;16.50;99.90
63299;DHT22;54535;52.138;5.398;2022-09-24T16:41:18;16.50;99.90
63299;DHT22;54535;52.138;5.398;2022-09-24T16:43:44;16.50;99.90
63299;DHT22;54535;52.138;5.398;2022-09-24T16:46:11;16.40;99.90
63299;DHT22;54535;52.138;5.398;2022-09-24T16:48:47;16.40;99.90
63299;DHT22;54535;52.138;5.398;2022-09-24T16:51:14;16.40;99.90
63299;DHT22;54535;52.138;5.398;2022-09-24T16:53:42;16.40;99.90
63299;DHT22;54535;52.138;5.398;2022-09-24T16:56:14;16.40;99.90
63299;DHT22;54535;52.138;5.398;2022-09-24T16:58:42;16.40;99.90
63299;DHT22;54535;52.138;5.398;2022-09-24T17:01:10;16.40;99.90
63299;DHT22;54535;52.138;5.398;2022-09-24T17:03:37;16.40;99.90
63299;DHT22;54535;52.138;5.398;2022-09-24T17:06:04;16.40;99.90
63299;DHT22;54535;52.138;5.398;2022-09-24T17:08:32;16.40;99.90
63299;DHT22;54535;52.138;5.398;2022-09-24T17:11:18;16.40;99.90
63299;DHT22;54535;52.138;5.398;2022-09-24T17:13:45;16.30;99.90
63299;DHT22;54535;52.138;5.398;2022-09-24T17:16:13;16.30;99.90
63299;DHT22;54535;52.138;5.398;2022-09-24T17:18:40;16.30;99.90
63299;DHT22;54535;52.138;5.398;2022-09-24T17:21:08;16.30;99.90
63299;DHT22;54535;52.138;5.398;2022-09-24T17:23:35;16.30;99.90
63299;DHT22;54535;52.138;5.398;2022-09-24T17:26:04;16.20;99.90
63299;DHT22;54535;52.138;5.398;2022-09-24T17:28:31;16.30;99.90
63299;DHT22;54535;52.138;5.398;2022-09-24T17:30:58;16.20;99.90
63299;DHT22;54535;52.138;5.398;2022-09-24T17:33:25;16.20;99.90
63299;DHT22;54535;52.138;5.398;2022-09-24T17:36:09;16.20;99.90
63299;DHT22;54535;52.138;5.398;2022-09-24T17:38:37;16.10;99.90
63299;DHT22;54535;52.138;5.398;2022-09-24T17:41:05;16.10;99.90
63299;DHT22;54535;52.138;5.398;2022-09-24T17:43:32;16.10;99.90
63299;DHT22;54535;52.138;5.398;2022-09-24T17:46:03;16.00;99.90
63299;DHT22;54535;52.138;5.398;2022-09-24T17:48:37;16.00;99.90